createdAt,value
2023-01-25T00:00:39.426Z,82.42
2023-01-25T00:02:11.432Z,82.25
2023-01-25T00:03:43.268Z,82.38
2023-01-25T00:05:15.240Z,82.71
2023-01-25T00:06:47.648Z,82.85
2023-01-25T00:08:21.506Z,83.04
2023-01-25T00:09:53.390Z,82.85
2023-01-25T00:11:25.284Z,82.74
2023-01-25T00:12:57.403Z,82.63
2023-01-25T00:14:29.224Z,82.64
2023-01-25T00:16:02.000Z,82.86
2023-01-25T00:17:33.864Z,83.06
2023-01-25T00:19:05.862Z,83.10
2023-01-25T00:20:38.103Z,83.09
2023-01-25T00:22:09.970Z,83.21
2023-01-25T00:23:41.945Z,83.22
2023-01-25T00:25:13.864Z,83.08
2023-01-25T00:26:46.152Z,83.07
2023-01-25T00:28:18.025Z,82.93
2023-01-25T00:29:49.893Z,82.59
2023-01-25T00:33:17.598Z,82.60
2023-01-25T00:36:27.825Z,82.52
2023-01-25T00:38:01.995Z,82.47
2023-01-25T00:39:33.789Z,82.19
2023-01-25T00:41:05.610Z,82.44
2023-01-25T00:42:37.489Z,82.76
2023-01-25T00:44:09.399Z,82.93
2023-01-25T00:45:41.404Z,83.17
2023-01-25T00:47:13.473Z,83.02
2023-01-25T00:48:45.611Z,83.29
2023-01-25T00:50:17.531Z,83.43
2023-01-25T00:51:49.751Z,83.10
2023-01-25T00:53:21.558Z,83.03
2023-01-25T00:54:53.477Z,82.83
2023-01-25T00:56:25.383Z,82.67
2023-01-25T00:57:57.340Z,82.68
2023-01-25T00:59:29.145Z,82.78
2023-01-25T01:01:00.981Z,82.72
2023-01-25T01:02:32.826Z,82.71
2023-01-25T01:04:06.439Z,82.45
2023-01-25T01:05:38.485Z,82.26
2023-01-25T01:07:12.044Z,81.63
2023-01-25T01:08:43.877Z,81.93
2023-01-25T01:10:15.864Z,81.93
2023-01-25T01:11:47.725Z,81.89
2023-01-25T01:13:19.574Z,81.60
2023-01-25T01:14:51.378Z,81.50
2023-01-25T01:16:23.393Z,81.64
2023-01-25T01:17:55.294Z,81.61
2023-01-25T01:19:27.097Z,81.60
2023-01-25T01:20:58.873Z,81.89
2023-01-25T01:22:30.751Z,81.87
2023-01-25T01:24:02.679Z,81.70
2023-01-25T01:25:34.527Z,81.74
2023-01-25T01:27:06.488Z,81.96
2023-01-25T01:28:41.317Z,81.66
2023-01-25T01:30:13.297Z,81.68
2023-01-25T01:31:45.213Z,81.90
2023-01-25T01:33:17.140Z,81.96
2023-01-25T01:34:48.913Z,82.22
2023-01-25T01:36:21.415Z,82.35
2023-01-25T01:37:53.201Z,82.11
2023-01-25T01:39:25.258Z,82.40
2023-01-25T01:40:57.021Z,82.41
2023-01-25T01:42:28.909Z,82.24
2023-01-25T01:44:00.789Z,82.26
2023-01-25T01:45:47.982Z,82.22
2023-01-25T01:47:24.616Z,82.24
2023-01-25T01:48:58.857Z,82.19
2023-01-25T01:50:30.650Z,82.10
2023-01-25T01:52:03.975Z,82.08
2023-01-25T01:53:35.942Z,82.24
2023-01-25T01:55:09.379Z,82.21
2023-01-25T01:57:00.829Z,82.04
2023-01-25T01:58:32.615Z,81.95
2023-01-25T02:00:06.514Z,82.21
2023-01-25T02:01:38.378Z,82.58
2023-01-25T02:03:10.230Z,82.25
2023-01-25T02:04:42.494Z,81.99
2023-01-25T02:06:15.324Z,81.91
2023-01-25T02:07:47.568Z,81.91
2023-01-25T02:09:20.422Z,81.87
2023-01-25T02:10:52.293Z,81.74
2023-01-25T02:12:24.366Z,82.01
2023-01-25T02:13:56.223Z,81.91
2023-01-25T02:15:28.767Z,81.93
2023-01-25T02:17:00.597Z,81.43
2023-01-25T02:18:32.617Z,81.27
2023-01-25T02:20:04.484Z,81.24
2023-01-25T02:21:39.095Z,81.46
2023-01-25T02:23:13.761Z,81.27
2023-01-25T02:24:47.501Z,81.44
2023-01-25T02:26:21.959Z,81.33
2023-01-25T02:27:55.031Z,81.58
2023-01-25T02:29:26.875Z,81.48
2023-01-25T02:30:58.804Z,81.40
2023-01-25T02:32:30.677Z,80.92
2023-01-25T02:34:02.522Z,80.80
2023-01-25T02:35:37.307Z,80.79
2023-01-25T02:37:10.579Z,80.74
2023-01-25T02:38:44.808Z,80.82
2023-01-25T02:40:17.625Z,80.98
2023-01-25T02:41:51.738Z,80.96
2023-01-25T02:43:24.383Z,80.77
2023-01-25T02:44:56.185Z,81.00
2023-01-25T02:46:29.181Z,80.57
2023-01-25T02:48:01.037Z,80.94
2023-01-25T02:49:35.139Z,80.91
2023-01-25T02:51:07.969Z,80.60
2023-01-25T02:52:39.891Z,80.66
2023-01-25T02:54:12.442Z,81.06
2023-01-25T02:55:44.375Z,80.82
2023-01-25T02:57:16.301Z,80.77
2023-01-25T02:58:48.272Z,80.77
2023-01-25T03:00:20.175Z,81.31
2023-01-25T03:01:52.198Z,81.26
2023-01-25T03:03:24.097Z,81.31
2023-01-25T03:04:55.932Z,81.55
2023-01-25T03:06:27.770Z,81.50
2023-01-25T03:07:59.626Z,81.70
2023-01-25T03:09:31.441Z,81.90
2023-01-25T03:11:04.152Z,81.66
2023-01-25T03:12:35.967Z,81.75
2023-01-25T03:14:07.836Z,81.45
2023-01-25T03:15:39.746Z,81.44
2023-01-25T03:17:11.567Z,81.47
2023-01-25T03:18:43.701Z,81.50
2023-01-25T03:20:15.797Z,81.42
2023-01-25T03:21:47.655Z,81.11
2023-01-25T03:23:20.452Z,81.20
2023-01-25T03:24:52.333Z,81.33
2023-01-25T03:26:24.539Z,81.48
2023-01-25T03:27:56.719Z,81.52
2023-01-25T03:29:28.546Z,81.57
2023-01-25T03:31:00.378Z,81.69
2023-01-25T03:32:32.265Z,81.53
2023-01-25T03:34:04.114Z,81.73
2023-01-25T03:35:35.908Z,81.72
2023-01-25T03:37:07.840Z,81.91
2023-01-25T03:38:39.724Z,82.27
2023-01-25T03:40:11.832Z,82.34
2023-01-25T03:41:43.626Z,82.46
2023-01-25T03:43:15.490Z,82.51
2023-01-25T03:44:47.299Z,82.77
2023-01-25T03:46:19.133Z,82.91
2023-01-25T03:47:50.941Z,83.19
2023-01-25T03:49:22.786Z,83.19
2023-01-25T03:50:55.663Z,82.73
2023-01-25T03:52:38.786Z,82.55
2023-01-25T03:54:10.623Z,82.38
2023-01-25T03:55:42.426Z,82.14
2023-01-25T03:57:14.254Z,82.24
2023-01-25T03:58:46.300Z,82.03
2023-01-25T04:00:18.534Z,82.07
2023-01-25T04:01:50.431Z,81.75
2023-01-25T04:03:22.378Z,81.82
2023-01-25T04:04:54.217Z,81.65
2023-01-25T04:06:29.215Z,81.63
2023-01-25T04:08:01.074Z,81.81
2023-01-25T04:09:33.001Z,81.57
2023-01-25T04:11:06.151Z,81.96
2023-01-25T04:12:38.676Z,81.99
2023-01-25T04:14:10.557Z,82.14
2023-01-25T04:15:42.495Z,82.14
2023-01-25T04:17:14.474Z,82.46
2023-01-25T04:18:46.574Z,82.58
2023-01-25T04:20:18.399Z,82.63
2023-01-25T04:21:52.940Z,82.60
2023-01-25T04:23:25.329Z,82.75
2023-01-25T04:24:57.131Z,82.82
2023-01-25T04:26:28.923Z,82.98
2023-01-25T04:28:00.706Z,83.10
2023-01-25T04:29:41.203Z,83.34
2023-01-25T04:31:13.859Z,83.41
2023-01-25T04:32:45.857Z,83.28
2023-01-25T04:34:17.956Z,83.06
2023-01-25T04:35:49.798Z,83.28
2023-01-25T04:37:21.946Z,83.36
2023-01-25T04:38:53.781Z,83.39
2023-01-25T04:40:25.827Z,83.24
2023-01-25T04:41:57.593Z,83.09
2023-01-25T04:43:29.523Z,83.23
2023-01-25T04:45:01.572Z,83.17
2023-01-25T04:46:33.403Z,82.92
2023-01-25T04:48:06.606Z,82.64
2023-01-25T04:49:38.384Z,82.90
2023-01-25T04:51:10.317Z,83.15
2023-01-25T04:52:42.150Z,82.80
2023-01-25T04:54:14.102Z,82.75
2023-01-25T04:55:47.167Z,82.62
2023-01-25T04:57:19.038Z,82.59
2023-01-25T04:58:50.887Z,82.42
2023-01-25T05:00:22.955Z,82.07
2023-01-25T05:01:54.834Z,82.46
2023-01-25T05:03:27.684Z,82.45
2023-01-25T05:05:02.518Z,82.29
2023-01-25T05:06:34.462Z,82.11
2023-01-25T05:08:06.369Z,82.30
2023-01-25T05:09:38.211Z,82.23
2023-01-25T05:11:10.037Z,82.34
2023-01-25T05:12:44.783Z,82.46
2023-01-25T05:14:16.637Z,82.52
2023-01-25T05:15:48.530Z,82.72
2023-01-25T05:17:20.853Z,82.93
2023-01-25T05:18:52.727Z,82.84
2023-01-25T05:20:24.656Z,82.69
2023-01-25T05:21:59.471Z,82.70
2023-01-25T05:23:31.478Z,82.61
2023-01-25T05:25:04.273Z,82.26
2023-01-25T05:26:54.544Z,81.89
2023-01-25T05:28:26.369Z,82.02
2023-01-25T05:29:58.255Z,82.24
2023-01-25T05:31:30.058Z,82.16
2023-01-25T05:33:01.968Z,82.40
2023-01-25T05:34:34.075Z,82.64
2023-01-25T05:37:46.492Z,82.41
2023-01-25T05:39:18.400Z,82.18
2023-01-25T05:40:50.340Z,82.29
2023-01-25T05:42:22.390Z,81.77
2023-01-25T05:43:54.298Z,81.64
2023-01-25T05:45:26.420Z,81.56
2023-01-25T05:46:58.218Z,81.67
2023-01-25T05:48:29.982Z,81.76
2023-01-25T05:50:01.851Z,81.85
2023-01-25T05:51:33.867Z,81.81
2023-01-25T05:53:05.673Z,81.57
2023-01-25T05:54:37.560Z,81.31
2023-01-25T05:56:10.681Z,80.86
2023-01-25T05:57:42.527Z,80.97
2023-01-25T05:59:14.447Z,81.40
2023-01-25T06:00:46.267Z,81.93
2023-01-25T06:02:18.187Z,82.38
2023-01-25T06:03:50.215Z,82.60
2023-01-25T06:05:22.154Z,82.52
2023-01-25T06:06:54.305Z,82.53
2023-01-25T06:08:26.259Z,82.06
2023-01-25T06:09:59.773Z,81.66
2023-01-25T06:11:31.718Z,81.67
2023-01-25T06:13:03.561Z,81.81
2023-01-25T06:14:35.494Z,81.56
2023-01-25T06:16:07.635Z,81.34
2023-01-25T06:17:39.540Z,81.51
2023-01-25T06:19:13.061Z,81.29
2023-01-25T06:20:44.967Z,81.58
2023-01-25T06:22:17.073Z,81.62
2023-01-25T06:23:49.144Z,81.49
2023-01-25T06:25:20.989Z,81.58
2023-01-25T06:26:52.851Z,81.79
2023-01-25T06:28:24.880Z,81.69
2023-01-25T06:29:56.721Z,81.25
2023-01-25T06:31:28.661Z,81.33
2023-01-25T06:33:00.895Z,80.62
2023-01-25T06:34:32.794Z,80.66
2023-01-25T06:36:05.754Z,80.79
2023-01-25T06:37:37.693Z,81.03
2023-01-25T06:39:09.652Z,80.59
2023-01-25T06:40:41.579Z,80.61
2023-01-25T06:42:13.435Z,80.56
2023-01-25T06:43:48.283Z,80.28
2023-01-25T06:45:20.233Z,80.49
2023-01-25T06:46:52.283Z,80.90
2023-01-25T06:48:24.255Z,80.99
2023-01-25T06:49:56.054Z,81.06
2023-01-25T06:51:28.027Z,81.27
2023-01-25T06:53:00.066Z,81.24
2023-01-25T06:54:31.976Z,81.08
2023-01-25T06:56:10.020Z,80.58
2023-01-25T06:57:42.639Z,80.50
2023-01-25T06:59:16.377Z,80.46
2023-01-25T07:00:48.177Z,80.62
2023-01-25T07:02:20.112Z,81.06
2023-01-25T07:03:52.584Z,81.26
2023-01-25T07:05:24.518Z,81.26
2023-01-25T07:06:56.411Z,81.45
2023-01-25T07:08:28.570Z,81.26
2023-01-25T07:10:02.247Z,80.79
2023-01-25T07:11:34.251Z,80.50
2023-01-25T07:13:06.106Z,80.53
2023-01-25T07:14:37.969Z,80.86
2023-01-25T07:16:12.624Z,81.08
2023-01-25T07:17:44.549Z,81.11
2023-01-25T07:19:18.193Z,80.83
2023-01-25T07:20:50.447Z,80.33
2023-01-25T07:22:22.348Z,79.94
2023-01-25T07:23:54.171Z,80.00
2023-01-25T07:27:00.080Z,80.67
2023-01-25T07:28:32.367Z,81.15
2023-01-25T07:30:04.380Z,80.90
2023-01-25T07:31:36.264Z,81.13
2023-01-25T07:33:08.599Z,81.05
2023-01-25T07:34:40.829Z,80.95
2023-01-25T07:36:12.694Z,80.30
2023-01-25T07:37:44.520Z,79.87
2023-01-25T07:39:17.463Z,79.29
2023-01-25T07:40:53.399Z,78.56
2023-01-25T07:42:25.734Z,79.12
2023-01-25T07:43:57.684Z,78.85
2023-01-25T07:45:32.380Z,79.43
2023-01-25T07:47:04.306Z,79.73
2023-01-25T07:48:36.185Z,79.89
2023-01-25T07:50:08.386Z,79.24
2023-01-25T07:51:40.567Z,79.33
2023-01-25T07:53:15.175Z,78.76
2023-01-25T07:54:49.143Z,78.46
2023-01-25T07:56:21.890Z,78.58
2023-01-25T07:57:56.724Z,79.12
2023-01-25T07:59:28.622Z,79.07
2023-01-25T08:01:10.406Z,79.01
2023-01-25T08:02:42.321Z,78.87
2023-01-25T08:04:14.251Z,78.94
2023-01-25T08:05:46.099Z,78.89
2023-01-25T08:07:17.953Z,79.03
2023-01-25T08:08:49.806Z,78.65
2023-01-25T08:10:22.416Z,78.79
2023-01-25T08:11:54.446Z,79.16
2023-01-25T08:13:26.342Z,79.37
2023-01-25T08:14:58.205Z,79.22
2023-01-25T08:16:30.825Z,79.16
2023-01-25T08:18:02.748Z,79.02
2023-01-25T08:19:34.613Z,78.46
2023-01-25T08:21:07.619Z,78.27
2023-01-25T08:22:40.572Z,76.43
2023-01-25T08:24:12.469Z,76.82
2023-01-25T08:25:44.395Z,76.96
2023-01-25T08:27:16.392Z,76.49
2023-01-25T08:28:48.254Z,76.46
2023-01-25T08:30:20.152Z,76.37
2023-01-25T08:31:52.012Z,76.32
2023-01-25T08:33:24.024Z,76.87
2023-01-25T08:34:55.991Z,77.65
2023-01-25T08:36:31.160Z,78.05
2023-01-25T08:38:03.698Z,78.25
2023-01-25T08:39:35.599Z,78.09
2023-01-25T08:41:08.193Z,78.06
2023-01-25T08:42:40.286Z,78.37
2023-01-25T08:44:13.242Z,77.88
2023-01-25T08:45:45.464Z,78.38
2023-01-25T08:47:17.430Z,78.06
2023-01-25T08:48:49.403Z,78.25
2023-01-25T08:50:21.314Z,77.53
2023-01-25T08:51:53.381Z,77.64
2023-01-25T08:53:25.486Z,76.37
2023-01-25T08:54:57.416Z,76.63
2023-01-25T08:56:29.221Z,76.75
2023-01-25T08:58:01.105Z,76.84
2023-01-25T08:59:36.818Z,76.57
2023-01-25T09:01:09.563Z,76.12
2023-01-25T09:02:41.386Z,76.38
2023-01-25T09:04:13.246Z,76.69
2023-01-25T09:05:45.455Z,75.55
2023-01-25T09:07:17.372Z,75.57
2023-01-25T09:08:49.272Z,75.23
2023-01-25T09:10:21.215Z,76.18
2023-01-25T09:11:53.117Z,76.63
2023-01-25T09:13:24.977Z,76.59
2023-01-25T09:14:56.797Z,76.15
2023-01-25T09:16:29.517Z,76.00
2023-01-25T09:18:01.579Z,77.11
2023-01-25T09:19:33.477Z,76.07
2023-01-25T09:21:08.997Z,76.31
2023-01-25T09:22:41.138Z,76.65
2023-01-25T09:24:13.072Z,76.27
2023-01-25T09:25:45.522Z,76.47
2023-01-25T09:27:17.387Z,75.54
2023-01-25T09:28:50.533Z,75.73
2023-01-25T09:30:33.598Z,76.37
2023-01-25T09:32:09.658Z,77.01
2023-01-25T09:33:41.831Z,77.08
2023-01-25T09:35:13.765Z,76.56
2023-01-25T09:36:45.676Z,76.81
2023-01-25T09:38:17.590Z,76.93
2023-01-25T09:39:49.392Z,76.82
2023-01-25T09:41:31.766Z,75.45
2023-01-25T09:43:06.024Z,75.59
2023-01-25T09:44:39.036Z,76.03
2023-01-25T09:46:34.006Z,76.22
2023-01-25T09:48:18.754Z,76.38
2023-01-25T09:49:59.715Z,76.12
2023-01-25T09:51:50.358Z,75.90
2023-01-25T09:53:33.152Z,75.08
2023-01-25T09:55:10.457Z,74.80
2023-01-25T09:56:42.310Z,75.17
2023-01-25T09:58:19.923Z,75.11
2023-01-25T09:59:52.121Z,75.84
2023-01-25T10:01:39.504Z,74.65
2023-01-25T10:03:17.520Z,75.65
2023-01-25T10:04:50.592Z,74.88
2023-01-25T10:06:24.084Z,74.23
2023-01-25T10:08:08.135Z,75.08
2023-01-25T10:11:22.888Z,74.83
2023-01-25T10:12:54.865Z,75.08
2023-01-25T10:14:33.641Z,75.59
2023-01-25T10:16:12.134Z,75.00
2023-01-25T10:18:10.095Z,74.32
2023-01-25T10:19:49.641Z,73.94
2023-01-25T10:21:22.433Z,74.21
2023-01-25T10:23:12.769Z,75.08
2023-01-25T10:24:49.229Z,74.01
2023-01-25T10:26:26.130Z,73.92
2023-01-25T10:28:06.530Z,73.70
2023-01-25T10:29:38.487Z,73.78
2023-01-25T10:31:16.264Z,73.92
2023-01-25T10:32:55.937Z,73.17
2023-01-25T10:34:30.356Z,72.92
2023-01-25T10:36:02.461Z,72.32
2023-01-25T10:37:34.329Z,73.66
2023-01-25T10:39:08.074Z,73.10
2023-01-25T10:40:41.653Z,73.02
2023-01-25T10:42:13.615Z,73.19
2023-01-25T10:43:45.560Z,72.99
2023-01-25T10:45:17.932Z,72.58
2023-01-25T10:46:57.124Z,72.88
2023-01-25T10:48:34.091Z,73.12
2023-01-25T10:50:06.049Z,72.93
2023-01-25T10:51:37.876Z,72.11
2023-01-25T10:53:44.466Z,72.87
2023-01-25T10:55:20.363Z,72.53
2023-01-25T10:56:52.213Z,72.02
2023-01-25T10:58:37.720Z,72.06
2023-01-25T11:00:15.872Z,72.83
2023-01-25T11:01:47.837Z,72.73
2023-01-25T11:03:20.324Z,73.34
2023-01-25T11:04:52.420Z,72.95
2023-01-25T11:06:31.673Z,72.35
2023-01-25T11:08:24.192Z,72.56
2023-01-25T11:09:58.726Z,72.95
2023-01-25T11:11:33.450Z,72.47
2023-01-25T11:14:44.029Z,71.48
2023-01-25T11:16:16.010Z,71.49
2023-01-25T11:17:49.618Z,73.07
2023-01-25T11:19:28.135Z,71.18
2023-01-25T11:21:07.554Z,71.09
2023-01-25T11:22:41.234Z,71.85
2023-01-25T11:24:17.380Z,72.55
2023-01-25T11:25:49.319Z,71.87
2023-01-25T11:27:22.489Z,72.25
2023-01-25T11:29:08.105Z,72.48
2023-01-25T11:30:40.108Z,71.87
2023-01-25T11:32:16.936Z,71.67
2023-01-25T11:33:48.877Z,71.07
2023-01-25T11:35:22.131Z,71.16
2023-01-25T11:36:56.789Z,69.96
2023-01-25T11:38:28.639Z,70.71
2023-01-25T11:40:12.654Z,69.81
2023-01-25T11:42:07.291Z,71.30
2023-01-25T11:45:30.783Z,70.94
2023-01-25T11:47:05.617Z,70.48
2023-01-25T11:48:45.459Z,70.70
2023-01-25T11:50:35.437Z,70.76
2023-01-25T11:52:25.775Z,70.43
2023-01-25T11:53:57.602Z,70.44
2023-01-25T11:55:29.471Z,70.74
2023-01-25T11:57:21.659Z,71.03
2023-01-25T11:59:25.777Z,72.48
2023-01-25T12:00:59.640Z,71.91
2023-01-25T12:02:49.670Z,70.86
2023-01-25T12:04:21.551Z,71.53
2023-01-25T12:06:11.776Z,70.49
2023-01-25T12:08:03.882Z,69.69
2023-01-25T12:10:02.003Z,69.23
2023-01-25T12:11:52.475Z,68.87
2023-01-25T12:15:07.592Z,70.60
2023-01-25T12:16:50.550Z,69.46
2023-01-25T12:18:22.430Z,70.39
2023-01-25T12:20:07.470Z,71.49
2023-01-25T12:21:55.383Z,70.98
2023-01-25T12:23:33.184Z,69.47
2023-01-25T12:25:29.658Z,70.23
2023-01-25T12:27:18.701Z,70.57
2023-01-25T12:29:11.103Z,69.96
2023-01-25T12:30:45.632Z,69.83
2023-01-25T12:32:17.501Z,69.88
2023-01-25T12:33:57.631Z,70.06
2023-01-25T12:35:39.879Z,69.32
2023-01-25T12:37:18.689Z,69.96
2023-01-25T12:38:55.774Z,70.50
2023-01-25T12:40:42.455Z,69.07
2023-01-25T12:42:17.499Z,69.03
2023-01-25T12:43:50.933Z,70.53
2023-01-25T12:45:23.547Z,70.06
2023-01-25T12:47:15.190Z,70.04
2023-01-25T12:48:48.014Z,70.63
2023-01-25T12:50:19.806Z,69.94
2023-01-25T12:51:51.851Z,70.09
2023-01-25T12:53:40.323Z,70.71
2023-01-25T12:55:15.662Z,70.17
2023-01-25T12:56:49.428Z,69.78
2023-01-25T12:58:37.384Z,70.19
2023-01-25T13:00:19.189Z,69.41
2023-01-25T13:01:52.118Z,69.48
2023-01-25T13:03:23.954Z,70.09
2023-01-25T13:04:58.967Z,69.70
2023-01-25T13:06:48.404Z,69.44
2023-01-25T13:08:31.837Z,69.20
2023-01-25T13:10:04.947Z,69.40
2023-01-25T13:11:39.812Z,70.08
2023-01-25T13:13:24.338Z,70.38
2023-01-25T13:14:56.214Z,69.64
2023-01-25T13:16:31.163Z,70.14
2023-01-25T13:18:08.869Z,69.27
2023-01-25T13:19:44.292Z,68.67
2023-01-25T13:21:34.929Z,70.21
2023-01-25T13:23:13.444Z,69.49
2023-01-25T13:25:03.997Z,69.18
2023-01-25T13:26:54.591Z,69.41
2023-01-25T13:28:42.584Z,69.22
2023-01-25T13:30:26.319Z,68.13
2023-01-25T13:31:59.374Z,68.66
2023-01-25T13:33:36.127Z,69.52
2023-01-25T13:35:25.177Z,69.61
2023-01-25T13:36:57.808Z,69.63
2023-01-25T13:38:31.392Z,69.77
2023-01-25T13:40:08.332Z,70.17
2023-01-25T13:41:55.626Z,68.82
2023-01-25T13:43:27.554Z,69.08
2023-01-25T13:45:03.906Z,68.30
2023-01-25T13:46:35.862Z,68.29
2023-01-25T13:48:19.918Z,69.00
2023-01-25T13:58:11.631Z,68.81
2023-01-25T13:59:43.531Z,68.81
2023-01-25T14:01:19.155Z,69.01
2023-01-25T14:02:53.943Z,69.58
2023-01-25T14:04:25.866Z,69.67
2023-01-25T14:05:58.522Z,68.82
2023-01-25T14:07:32.526Z,68.14
2023-01-25T14:09:07.945Z,68.58
2023-01-25T14:10:39.779Z,68.77
2023-01-25T14:12:12.103Z,68.04
2023-01-25T14:13:55.302Z,68.83
2023-01-25T14:15:28.544Z,68.90
2023-01-25T14:17:20.519Z,69.16
2023-01-25T14:18:52.436Z,68.43
2023-01-25T14:20:24.408Z,68.58
2023-01-25T14:22:14.785Z,68.73
2023-01-25T14:23:46.997Z,68.08
2023-01-25T14:25:22.866Z,68.55
2023-01-25T14:26:54.764Z,68.63
2023-01-25T14:28:27.173Z,69.39
2023-01-25T14:29:59.114Z,68.93
2023-01-25T14:31:40.138Z,69.78
2023-01-25T14:33:19.187Z,70.06
2023-01-25T14:34:51.063Z,69.43
2023-01-25T14:36:25.377Z,68.85
2023-01-25T14:37:57.578Z,69.39
2023-01-25T14:39:29.683Z,69.06
2023-01-25T14:41:04.045Z,69.27
2023-01-25T14:42:35.996Z,69.72
2023-01-25T14:44:11.853Z,69.70
2023-01-25T14:45:44.008Z,69.37
2023-01-25T14:47:26.038Z,70.08
2023-01-25T14:49:16.560Z,70.50
2023-01-25T14:50:48.421Z,70.80
2023-01-25T14:52:20.682Z,70.89
2023-01-25T14:53:57.251Z,71.58
2023-01-25T14:55:29.127Z,70.88
2023-01-25T14:57:06.539Z,71.22
2023-01-25T14:58:39.695Z,71.03
2023-01-25T15:00:19.408Z,71.61
2023-01-25T15:01:51.802Z,71.24
2023-01-25T15:03:26.961Z,70.73
2023-01-25T15:05:14.581Z,70.71
2023-01-25T15:06:51.518Z,71.13
2023-01-25T15:08:38.966Z,70.66
2023-01-25T15:10:21.613Z,70.98
2023-01-25T15:11:59.088Z,70.88
2023-01-25T15:13:31.219Z,70.92
2023-01-25T15:15:03.249Z,70.70
2023-01-25T15:16:35.364Z,71.79
2023-01-25T15:18:07.362Z,71.66
2023-01-25T15:19:40.333Z,71.33
2023-01-25T15:21:18.889Z,71.98
2023-01-25T15:22:50.756Z,72.25
2023-01-25T15:24:22.752Z,72.28
2023-01-25T15:25:58.309Z,72.24
2023-01-25T15:27:30.230Z,72.57
2023-01-25T15:29:03.325Z,72.83
2023-01-25T15:32:12.924Z,72.49
2023-01-25T15:33:45.003Z,72.16
2023-01-25T15:35:19.461Z,72.46
2023-01-25T15:36:51.403Z,72.48
2023-01-25T15:38:23.409Z,72.59
2023-01-25T15:39:55.483Z,72.47
2023-01-25T15:41:27.347Z,72.92
2023-01-25T15:42:59.696Z,72.69
2023-01-25T15:44:31.840Z,72.67
2023-01-25T15:46:03.927Z,72.95
2023-01-25T15:47:36.361Z,72.88
2023-01-25T15:49:08.621Z,72.65
2023-01-25T15:50:40.926Z,72.50
2023-01-25T15:52:12.768Z,72.39
2023-01-25T15:53:44.630Z,72.47
2023-01-25T15:55:16.612Z,72.46
2023-01-25T15:56:51.601Z,72.47
2023-01-25T15:58:24.299Z,72.51
2023-01-25T15:59:56.643Z,72.51
2023-01-25T16:01:29.085Z,71.90
2023-01-25T16:03:00.992Z,71.50
2023-01-25T16:04:33.002Z,70.88
2023-01-25T16:06:17.401Z,71.30
2023-01-25T16:07:49.300Z,71.93
2023-01-25T16:09:22.654Z,72.33
2023-01-25T16:10:54.825Z,72.46
2023-01-25T16:12:26.825Z,72.14
2023-01-25T16:13:58.637Z,72.70
2023-01-25T16:15:30.540Z,73.00
2023-01-25T16:17:04.481Z,73.01
2023-01-25T16:18:36.451Z,72.29
2023-01-25T16:20:11.300Z,72.31
2023-01-25T16:21:43.834Z,72.99
2023-01-25T16:23:15.633Z,73.07
2023-01-25T16:24:47.914Z,73.13
2023-01-25T16:26:20.999Z,73.25
2023-01-25T16:27:52.938Z,73.26
2023-01-25T16:29:25.035Z,73.11
2023-01-25T16:30:58.211Z,73.42
2023-01-25T16:32:30.236Z,73.29
2023-01-25T16:34:02.199Z,73.18
2023-01-25T16:35:34.218Z,73.37
2023-01-25T16:37:06.418Z,73.04
2023-01-25T16:38:38.233Z,72.77
2023-01-25T16:40:30.398Z,74.16
2023-01-25T16:42:02.213Z,73.57
2023-01-25T16:43:42.402Z,74.12
2023-01-25T16:45:17.075Z,74.41
2023-01-25T16:46:50.566Z,74.49
2023-01-25T16:48:22.477Z,74.38
2023-01-25T16:49:54.446Z,74.36
2023-01-25T16:51:27.304Z,74.35
2023-01-25T16:53:00.309Z,74.20
2023-01-25T16:54:32.435Z,74.34
2023-01-25T16:56:04.322Z,75.03
2023-01-25T16:57:36.149Z,74.99
2023-01-25T16:59:09.721Z,74.44
2023-01-25T17:00:41.689Z,73.89
2023-01-25T17:02:13.630Z,73.74
2023-01-25T17:03:45.568Z,74.22
2023-01-25T17:05:17.500Z,74.41
2023-01-25T17:06:50.410Z,74.61
2023-01-25T17:08:22.236Z,74.90
2023-01-25T17:09:54.107Z,75.08
2023-01-25T17:11:26.233Z,75.06
2023-01-25T17:12:58.123Z,75.49
2023-01-25T17:14:30.002Z,75.37
2023-01-25T17:16:01.977Z,75.42
2023-01-25T17:17:33.889Z,75.44
2023-01-25T17:19:06.779Z,75.12
2023-01-25T17:20:39.618Z,75.09
2023-01-25T17:22:11.568Z,74.80
2023-01-25T17:23:43.565Z,74.74
2023-01-25T17:25:15.756Z,74.71
2023-01-25T17:26:47.550Z,74.91
2023-01-25T17:28:19.370Z,74.61
2023-01-25T17:29:51.266Z,74.63
2023-01-25T17:31:27.380Z,74.63
2023-01-25T17:32:59.414Z,74.21
2023-01-25T17:34:31.315Z,73.95
2023-01-25T17:38:36.565Z,73.20
2023-01-25T17:40:09.197Z,73.39
2023-01-25T17:41:41.674Z,73.86
2023-01-25T17:43:13.467Z,73.94
2023-01-25T17:44:45.249Z,73.67
2023-01-25T17:46:26.465Z,73.66
2023-01-25T17:47:58.327Z,73.57
2023-01-25T17:49:31.049Z,73.33
2023-01-25T17:51:04.588Z,72.88
2023-01-25T17:52:36.630Z,72.31
2023-01-25T17:54:08.760Z,72.67
2023-01-25T17:55:40.580Z,72.08
2023-01-25T17:57:12.397Z,72.23
2023-01-25T17:58:44.358Z,72.21
2023-01-25T18:00:16.431Z,72.53
2023-01-25T18:01:48.603Z,72.84
2023-01-25T18:03:20.664Z,72.87
2023-01-25T18:04:52.492Z,72.67
2023-01-25T18:06:25.534Z,72.99
2023-01-25T18:07:57.415Z,73.05
2023-01-25T18:09:31.636Z,72.69
2023-01-25T18:11:06.491Z,72.69
2023-01-25T18:12:38.514Z,73.18
2023-01-25T18:14:12.994Z,73.38
2023-01-25T18:15:44.908Z,73.30
2023-01-25T18:17:16.927Z,73.21
2023-01-25T18:18:49.142Z,72.91
2023-01-25T18:20:21.231Z,73.43
2023-01-25T18:21:53.123Z,73.46
2023-01-25T18:23:24.969Z,73.66
2023-01-25T18:24:56.964Z,73.44
2023-01-25T18:26:30.167Z,73.69
2023-01-25T18:28:02.295Z,74.08
2023-01-25T18:29:43.778Z,74.12
2023-01-25T18:31:18.323Z,74.12
2023-01-25T18:32:50.278Z,74.46
2023-01-25T18:34:22.171Z,74.26
2023-01-25T18:35:54.605Z,74.04
2023-01-25T18:39:09.099Z,73.95
2023-01-25T18:40:41.895Z,74.25
2023-01-25T18:42:13.741Z,74.27
2023-01-25T18:43:48.637Z,73.82
2023-01-25T18:45:20.747Z,73.68
2023-01-25T18:46:52.681Z,74.08
2023-01-25T18:48:31.293Z,73.76
2023-01-25T18:50:03.304Z,73.67
2023-01-25T18:51:48.656Z,73.34
2023-01-25T18:53:27.641Z,73.09
2023-01-25T18:54:59.588Z,73.09
2023-01-25T18:56:34.528Z,73.54
2023-01-25T18:58:06.746Z,73.56
2023-01-25T18:59:38.712Z,73.50
2023-01-25T19:01:12.208Z,73.75
2023-01-25T19:02:44.274Z,73.60
2023-01-25T19:04:16.386Z,73.74
2023-01-25T19:05:51.599Z,73.72
2023-01-25T19:08:57.555Z,73.48
2023-01-25T19:10:29.499Z,72.92
2023-01-25T19:12:01.562Z,73.11
2023-01-25T19:13:34.029Z,73.98
2023-01-25T19:15:06.305Z,73.77
2023-01-25T19:16:38.372Z,73.66
2023-01-25T19:18:10.467Z,73.72
2023-01-25T19:19:44.556Z,74.00
2023-01-25T19:21:17.603Z,74.28
2023-01-25T19:22:50.012Z,74.02
2023-01-25T19:24:22.196Z,73.76
2023-01-25T19:25:55.076Z,74.05
2023-01-25T19:27:29.051Z,74.28
2023-01-25T19:29:00.951Z,74.29
2023-01-25T19:30:32.836Z,74.08
2023-01-25T19:32:05.044Z,74.82
2023-01-25T19:33:37.454Z,75.09
2023-01-25T19:35:09.769Z,75.08
2023-01-25T19:36:49.643Z,75.23
2023-01-25T19:38:21.541Z,75.32
2023-01-25T19:39:53.335Z,75.74
2023-01-25T19:41:26.302Z,75.99
2023-01-25T19:42:58.295Z,76.14
2023-01-25T19:44:30.114Z,76.24
2023-01-25T19:46:12.087Z,76.72
2023-01-25T19:47:44.025Z,76.48
2023-01-25T19:49:15.972Z,76.37
2023-01-25T19:50:50.086Z,76.21
2023-01-25T19:52:22.290Z,75.98
2023-01-25T19:54:01.331Z,76.10
2023-01-25T19:55:33.233Z,76.92
2023-01-25T19:57:05.144Z,77.11
2023-01-25T19:58:37.146Z,77.30
2023-01-25T20:00:09.258Z,77.41
2023-01-25T20:01:47.173Z,77.13
2023-01-25T20:03:19.158Z,77.01
2023-01-25T20:04:51.461Z,77.15
2023-01-25T20:06:23.324Z,77.27
2023-01-25T20:07:55.242Z,77.53
2023-01-25T20:09:28.592Z,77.28
2023-01-25T20:11:05.055Z,77.16
2023-01-25T20:12:36.970Z,77.39
2023-01-25T20:14:09.921Z,77.36
2023-01-25T20:15:47.810Z,77.28
2023-01-25T20:17:19.853Z,77.08
2023-01-25T20:18:51.837Z,77.03
2023-01-25T20:20:26.496Z,76.37
2023-01-25T20:23:32.740Z,76.33
2023-01-25T20:25:04.745Z,76.15
2023-01-25T20:26:39.239Z,76.02
2023-01-25T20:28:11.117Z,76.18
2023-01-25T20:29:43.020Z,76.19
2023-01-25T20:31:19.075Z,76.01
2023-01-25T20:32:50.922Z,75.90
2023-01-25T20:34:23.156Z,75.90
2023-01-25T20:35:58.530Z,75.93
2023-01-25T20:37:30.480Z,76.09
2023-01-25T20:39:02.530Z,76.22
2023-01-25T20:40:34.353Z,76.53
2023-01-25T20:42:06.308Z,76.75
2023-01-25T20:43:38.098Z,76.82